sensor_id;sensor_type;location;lat;lon;timestamp;temperature;humidity
5779;DHT22;2916;49.798;10.022;2023-04-10T00:01:08;7.00;14.40
5779;DHT22;2916;49.798;10.022;2023-04-10T00:03:36;7.00;14.50
5779;DHT22;2916;49.798;10.022;2023-04-10T00:06:04;7.00;15.00
5779;DHT22;2916;49.798;10.022;2023-04-10T00:08:32;7.00;15.90
5779;DHT22;2916;49.798;10.022;2023-04-10T00:10:59;7.00;16.70
5779;DHT22;2916;49.798;10.022;2023-04-10T00:13:26;6.90;17.10
5779;DHT22;2916;49.798;10.022;2023-04-10T00:15:53;6.90;17.80
5779;DHT22;2916;49.798;10.022;2023-04-10T00:18:21;6.90;18.50
5779;DHT22;2916;49.798;10.022;2023-04-10T00:20:49;6.90;19.00
5779;DHT22;2916;49.798;10.022;2023-04-10T00:23:17;6.90;19.70
5779;DHT22;2916;49.798;10.022;2023-04-10T00:25:44;6.90;21.00
5779;DHT22;2916;49.798;10.022;2023-04-10T00:28:13;6.90;21.70
5779;DHT22;2916;49.798;10.022;2023-04-10T00:30:41;6.90;22.10
5779;DHT22;2916;49.798;10.022;2023-04-10T00:33:08;6.80;22.70
5779;DHT22;2916;49.798;10.022;2023-04-10T00:35:36;6.70;23.70
5779;DHT22;2916;49.798;10.022;2023-04-10T00:38:04;6.70;25.20
5779;DHT22;2916;49.798;10.022;2023-04-10T00:40:31;6.60;26.80
5779;DHT22;2916;49.798;10.022;2023-04-10T00:42:59;6.50;29.60
5779;DHT22;2916;49.798;10.022;2023-04-10T00:45:26;6.50;31.80
5779;DHT22;2916;49.798;10.022;2023-04-10T00:47:54;6.40;33.20
5779;DHT22;2916;49.798;10.022;2023-04-10T00:50:21;6.40;35.30
5779;DHT22;2916;49.798;10.022;2023-04-10T00:52:49;6.40;36.40
5779;DHT22;2916;49.798;10.022;2023-04-10T00:55:18;6.40;37.60
5779;DHT22;2916;49.798;10.022;2023-04-10T00:57:46;6.30;40.70
5779;DHT22;2916;49.798;10.022;2023-04-10T01:00:14;6.30;41.20
5779;DHT22;2916;49.798;10.022;2023-04-10T01:02:42;6.20;44.20
5779;DHT22;2916;49.798;10.022;2023-04-10T01:05:11;6.20;47.00
5779;DHT22;2916;49.798;10.022;2023-04-10T01:07:51;6.20;47.70
5779;DHT22;2916;49.798;10.022;2023-04-10T01:10:33;6.20;48.40
5779;DHT22;2916;49.798;10.022;2023-04-10T01:13:08;6.20;50.10
5779;DHT22;2916;49.798;10.022;2023-04-10T01:15:45;6.10;52.70
5779;DHT22;2916;49.798;10.022;2023-04-10T01:18:23;6.00;55.40
5779;DHT22;2916;49.798;10.022;2023-04-10T01:20:58;6.00;56.20
5779;DHT22;2916;49.798;10.022;2023-04-10T01:26:55;6.10;56.10
5779;DHT22;2916;49.798;10.022;2023-04-10T01:29:35;6.10;56.10
5779;DHT22;2916;49.798;10.022;2023-04-10T01:32:12;6.10;57.70
5779;DHT22;2916;49.798;10.022;2023-04-10T01:34:45;6.10;57.40
5779;DHT22;2916;49.798;10.022;2023-04-10T01:37:17;6.00;57.60
5779;DHT22;2916;49.798;10.022;2023-04-10T01:39:52;6.00;56.40
5779;DHT22;2916;49.798;10.022;2023-04-10T01:42:26;6.00;57.10
5779;DHT22;2916;49.798;10.022;2023-04-10T01:44:56;6.00;57.00
5779;DHT22;2916;49.798;10.022;2023-04-10T01:47:43;6.00;57.70
5779;DHT22;2916;49.798;10.022;2023-04-10T01:50:31;5.90;59.20
5779;DHT22;2916;49.798;10.022;2023-04-10T01:53:02;5.80;60.60
5779;DHT22;2916;49.798;10.022;2023-04-10T01:55:32;5.80;59.70
5779;DHT22;2916;49.798;10.022;2023-04-10T01:58:01;5.80;61.30
5779;DHT22;2916;49.798;10.022;2023-04-10T02:00:38;5.70;64.00
5779;DHT22;2916;49.798;10.022;2023-04-10T02:03:13;5.70;65.10
5779;DHT22;2916;49.798;10.022;2023-04-10T02:05:51;5.70;63.50
5779;DHT22;2916;49.798;10.022;2023-04-10T02:08:32;5.60;64.30
5779;DHT22;2916;49.798;10.022;2023-04-10T02:13:59;5.70;69.40
5779;DHT22;2916;49.798;10.022;2023-04-10T02:16:31;5.60;72.90
5779;DHT22;2916;49.798;10.022;2023-04-10T02:19:00;5.60;74.00
5779;DHT22;2916;49.798;10.022;2023-04-10T02:21:29;5.40;70.40
5779;DHT22;2916;49.798;10.022;2023-04-10T02:23:56;5.50;72.80
5779;DHT22;2916;49.798;10.022;2023-04-10T02:26:24;5.40;76.80
5779;DHT22;2916;49.798;10.022;2023-04-10T02:28:51;5.30;78.70
5779;DHT22;2916;49.798;10.022;2023-04-10T02:31:18;5.30;84.60
5779;DHT22;2916;49.798;10.022;2023-04-10T02:33:47;5.20;88.50
5779;DHT22;2916;49.798;10.022;2023-04-10T02:36:14;5.20;90.20
5779;DHT22;2916;49.798;10.022;2023-04-10T02:38:41;5.20;92.10
5779;DHT22;2916;49.798;10.022;2023-04-10T02:41:08;5.10;91.60
5779;DHT22;2916;49.798;10.022;2023-04-10T02:43:35;5.10;93.30
5779;DHT22;2916;49.798;10.022;2023-04-10T02:46:03;4.90;99.80
5779;DHT22;2916;49.798;10.022;2023-04-10T02:48:30;4.80;99.90
5779;DHT22;2916;49.798;10.022;2023-04-10T02:50:59;4.70;99.90
5779;DHT22;2916;49.798;10.022;2023-04-10T02:53:26;4.70;99.90
5779;DHT22;2916;49.798;10.022;2023-04-10T02:55:53;4.60;99.90
5779;DHT22;2916;49.798;10.022;2023-04-10T02:58:20;4.50;99.90
5779;DHT22;2916;49.798;10.022;2023-04-10T03:00:48;4.40;99.90
5779;DHT22;2916;49.798;10.022;2023-04-10T03:03:17;4.40;99.90
5779;DHT22;2916;49.798;10.022;2023-04-10T03:05:45;4.40;99.90
5779;DHT22;2916;49.798;10.022;2023-04-10T03:08:15;4.50;99.90
5779;DHT22;2916;49.798;10.022;2023-04-10T03:10:43;4.50;99.90
5779;DHT22;2916;49.798;10.022;2023-04-10T03:13:13;4.50;99.90
5779;DHT22;2916;49.798;10.022;2023-04-10T03:15:40;4.50;99.90
5779;DHT22;2916;49.798;10.022;2023-04-10T03:18:07;4.70;99.90
5779;DHT22;2916;49.798;10.022;2023-04-10T03:20:35;4.70;99.90
5779;DHT22;2916;49.798;10.022;2023-04-10T03:23:04;4.80;99.90
5779;DHT22;2916;49.798;10.022;2023-04-10T03:25:34;4.80;99.90
5779;DHT22;2916;49.798;10.022;2023-04-10T03:28:01;4.80;99.90
5779;DHT22;2916;49.798;10.022;2023-04-10T03:30:29;4.70;99.90
5779;DHT22;2916;49.798;10.022;2023-04-10T03:32:56;4.60;99.90
5779;DHT22;2916;49.798;10.022;2023-04-10T03:35:23;4.60;99.90
5779;DHT22;2916;49.798;10.022;2023-04-10T03:37:50;4.60;99.90
5779;DHT22;2916;49.798;10.022;2023-04-10T03:40:17;4.70;99.90
5779;DHT22;2916;49.798;10.022;2023-04-10T03:42:46;4.70;99.90
5779;DHT22;2916;49.798;10.022;2023-04-10T03:45:13;4.70;99.90
5779;DHT22;2916;49.798;10.022;2023-04-10T03:47:41;4.70;99.90
5779;DHT22;2916;49.798;10.022;2023-04-10T03:50:09;4.70;99.90
5779;DHT22;2916;49.798;10.022;2023-04-10T03:52:36;4.70;99.90
5779;DHT22;2916;49.798;10.022;2023-04-10T03:55:04;4.70;99.90
5779;DHT22;2916;49.798;10.022;2023-04-10T03:57:32;4.60;99.90
5779;DHT22;2916;49.798;10.022;2023-04-10T04:00:01;4.60;99.90
5779;DHT22;2916;49.798;10.022;2023-04-10T04:02:28;4.60;99.90
5779;DHT22;2916;49.798;10.022;2023-04-10T04:04:55;4.50;99.90
5779;DHT22;2916;49.798;10.022;2023-04-10T04:07:23;4.50;99.90
5779;DHT22;2916;49.798;10.022;2023-04-10T04:09:50;4.50;99.90
5779;DHT22;2916;49.798;10.022;2023-04-10T04:12:17;4.50;99.90
5779;DHT22;2916;49.798;10.022;2023-04-10T04:14:44;4.50;99.90
5779;DHT22;2916;49.798;10.022;2023-04-10T04:17:13;4.50;99.90
5779;DHT22;2916;49.798;10.022;2023-04-10T04:19:40;4.50;99.90
5779;DHT22;2916;49.798;10.022;2023-04-10T04:22:07;4.50;99.90
5779;DHT22;2916;49.798;10.022;2023-04-10T04:24:35;4.50;99.90
5779;DHT22;2916;49.798;10.022;2023-04-10T04:27:02;4.40;99.90
5779;DHT22;2916;49.798;10.022;2023-04-10T04:29:29;4.30;99.90
5779;DHT22;2916;49.798;10.022;2023-04-10T04:31:56;4.30;99.90
5779;DHT22;2916;49.798;10.022;2023-04-10T04:34:25;4.30;99.90
5779;DHT22;2916;49.798;10.022;2023-04-10T04:36:52;4.40;99.90
5779;DHT22;2916;49.798;10.022;2023-04-10T04:39:19;4.30;99.90
5779;DHT22;2916;49.798;10.022;2023-04-10T04:41:47;4.30;99.90
5779;DHT22;2916;49.798;10.022;2023-04-10T04:44:15;4.30;99.90
5779;DHT22;2916;49.798;10.022;2023-04-10T04:46:43;4.30;99.90
5779;DHT22;2916;49.798;10.022;2023-04-10T04:49:11;4.20;99.90
5779;DHT22;2916;49.798;10.022;2023-04-10T04:51:40;4.20;99.90
5779;DHT22;2916;49.798;10.022;2023-04-10T04:54:07;4.10;99.90
5779;DHT22;2916;49.798;10.022;2023-04-10T04:56:35;4.10;99.90
5779;DHT22;2916;49.798;10.022;2023-04-10T04:59:02;4.00;99.90
5779;DHT22;2916;49.798;10.022;2023-04-10T05:01:29;4.10;99.90
5779;DHT22;2916;49.798;10.022;2023-04-10T05:03:57;4.10;99.90
5779;DHT22;2916;49.798;10.022;2023-04-10T05:06:24;4.10;99.90
5779;DHT22;2916;49.798;10.022;2023-04-10T05:08:53;4.20;99.90
5779;DHT22;2916;49.798;10.022;2023-04-10T05:11:20;4.30;99.90
5779;DHT22;2916;49.798;10.022;2023-04-10T05:13:47;4.70;99.90
5779;DHT22;2916;49.798;10.022;2023-04-10T05:16:14;5.00;99.90
5779;DHT22;2916;49.798;10.022;2023-04-10T05:18:41;5.40;99.90
5779;DHT22;2916;49.798;10.022;2023-04-10T05:21:09;5.40;99.90
5779;DHT22;2916;49.798;10.022;2023-04-10T05:23:36;5.40;99.90
5779;DHT22;2916;49.798;10.022;2023-04-10T05:26:05;5.50;99.90
5779;DHT22;2916;49.798;10.022;2023-04-10T05:28:32;5.60;99.90
5779;DHT22;2916;49.798;10.022;2023-04-10T05:31:00;5.80;99.90
5779;DHT22;2916;49.798;10.022;2023-04-10T05:33:27;5.80;99.90
5779;DHT22;2916;49.798;10.022;2023-04-10T05:35:54;5.90;99.90
5779;DHT22;2916;49.798;10.022;2023-04-10T05:38:21;6.00;99.90
5779;DHT22;2916;49.798;10.022;2023-04-10T05:40:49;5.90;99.90
5779;DHT22;2916;49.798;10.022;2023-04-10T05:43:17;5.90;99.90
5779;DHT22;2916;49.798;10.022;2023-04-10T05:45:46;6.20;99.90
5779;DHT22;2916;49.798;10.022;2023-04-10T05:48:13;6.30;99.90
5779;DHT22;2916;49.798;10.022;2023-04-10T05:50:40;6.50;99.90
5779;DHT22;2916;49.798;10.022;2023-04-10T05:53:11;6.80;99.90
5779;DHT22;2916;49.798;10.022;2023-04-10T05:55:39;7.00;99.90
5779;DHT22;2916;49.798;10.022;2023-04-10T05:58:06;7.00;99.90
5779;DHT22;2916;49.798;10.022;2023-04-10T06:00:35;7.30;99.90
5779;DHT22;2916;49.798;10.022;2023-04-10T06:03:02;7.40;99.90
5779;DHT22;2916;49.798;10.022;2023-04-10T06:05:29;7.50;99.90
5779;DHT22;2916;49.798;10.022;2023-04-10T06:07:57;7.50;99.90
5779;DHT22;2916;49.798;10.022;2023-04-10T06:10:24;7.60;99.90
5779;DHT22;2916;49.798;10.022;2023-04-10T06:12:55;7.80;98.70
5779;DHT22;2916;49.798;10.022;2023-04-10T06:15:22;8.00;99.90
5779;DHT22;2916;49.798;10.022;2023-04-10T06:17:50;7.70;98.20
5779;DHT22;2916;49.798;10.022;2023-04-10T06:20:18;7.90;98.90
5779;DHT22;2916;49.798;10.022;2023-04-10T06:22:46;8.00;96.90
5779;DHT22;2916;49.798;10.022;2023-04-10T06:25:13;7.90;99.40
5779;DHT22;2916;49.798;10.022;2023-04-10T06:27:40;8.00;97.80
5779;DHT22;2916;49.798;10.022;2023-04-10T06:30:08;8.30;98.60
5779;DHT22;2916;49.798;10.022;2023-04-10T06:32:36;8.70;93.20
5779;DHT22;2916;49.798;10.022;2023-04-10T06:35:05;8.90;92.00
5779;DHT22;2916;49.798;10.022;2023-04-10T06:37:33;9.40;87.00
5779;DHT22;2916;49.798;10.022;2023-04-10T06:40:02;9.60;76.30
5779;DHT22;2916;49.798;10.022;2023-04-10T06:42:31;10.00;62.30
5779;DHT22;2916;49.798;10.022;2023-04-10T06:44:58;10.10;58.00
5779;DHT22;2916;49.798;10.022;2023-04-10T06:47:27;10.70;54.50
5779;DHT22;2916;49.798;10.022;2023-04-10T06:49:55;10.60;46.90
5779;DHT22;2916;49.798;10.022;2023-04-10T06:52:23;10.80;44.10
5779;DHT22;2916;49.798;10.022;2023-04-10T06:54:51;11.10;35.90
5779;DHT22;2916;49.798;10.022;2023-04-10T06:57:18;11.30;27.60
5779;DHT22;2916;49.798;10.022;2023-04-10T06:59:45;11.30;24.80
5779;DHT22;2916;49.798;10.022;2023-04-10T07:02:12;11.40;25.10
5779;DHT22;2916;49.798;10.022;2023-04-10T07:04:40;11.10;21.70
5779;DHT22;2916;49.798;10.022;2023-04-10T07:07:08;11.20;21.60
5779;DHT22;2916;49.798;10.022;2023-04-10T07:09:38;10.80;22.30
5779;DHT22;2916;49.798;10.022;2023-04-10T07:12:05;10.60;26.20
5779;DHT22;2916;49.798;10.022;2023-04-10T07:14:33;10.60;25.10
5779;DHT22;2916;49.798;10.022;2023-04-10T07:17:01;11.00;26.40
5779;DHT22;2916;49.798;10.022;2023-04-10T07:19:28;11.20;23.40
5779;DHT22;2916;49.798;10.022;2023-04-10T07:21:55;11.30;19.90
5779;DHT22;2916;49.798;10.022;2023-04-10T07:24:23;11.10;20.10
5779;DHT22;2916;49.798;10.022;2023-04-10T07:26:51;11.40;20.20
5779;DHT22;2916;49.798;10.022;2023-04-10T07:29:19;11.40;17.40
5779;DHT22;2916;49.798;10.022;2023-04-10T07:31:47;11.90;15.10
5779;DHT22;2916;49.798;10.022;2023-04-10T07:34:15;12.00;10.00
5779;DHT22;2916;49.798;10.022;2023-04-10T07:36:42;12.20;8.70
5779;DHT22;2916;49.798;10.022;2023-04-10T07:39:09;12.20;11.60
5779;DHT22;2916;49.798;10.022;2023-04-10T07:41:36;12.50;8.80
5779;DHT22;2916;49.798;10.022;2023-04-10T07:44:05;12.70;6.30
5779;DHT22;2916;49.798;10.022;2023-04-10T07:46:32;12.90;5.00
5779;DHT22;2916;49.798;10.022;2023-04-10T07:48:59;12.70;4.30
5779;DHT22;2916;49.798;10.022;2023-04-10T07:51:28;12.70;3.00
5779;DHT22;2916;49.798;10.022;2023-04-10T07:53:55;12.80;4.30
5779;DHT22;2916;49.798;10.022;2023-04-10T07:56:22;12.70;1.50
5779;DHT22;2916;49.798;10.022;2023-04-10T07:58:50;13.10;4.50
5779;DHT22;2916;49.798;10.022;2023-04-10T08:01:19;13.10;1.00
5779;DHT22;2916;49.798;10.022;2023-04-10T08:03:46;13.30;1.00
5779;DHT22;2916;49.798;10.022;2023-04-10T08:06:13;13.10;1.00
5779;DHT22;2916;49.798;10.022;2023-04-10T08:08:41;13.20;1.00
5779;DHT22;2916;49.798;10.022;2023-04-10T08:11:22;13.80;1.00
5779;DHT22;2916;49.798;10.022;2023-04-10T08:13:51;13.50;1.00
5779;DHT22;2916;49.798;10.022;2023-04-10T08:16:23;13.30;1.00
5779;DHT22;2916;49.798;10.022;2023-04-10T08:18:52;13.50;1.00
5779;DHT22;2916;49.798;10.022;2023-04-10T08:21:21;13.70;1.00
5779;DHT22;2916;49.798;10.022;2023-04-10T08:23:49;13.50;1.00
5779;DHT22;2916;49.798;10.022;2023-04-10T08:26:17;13.60;1.00
5779;DHT22;2916;49.798;10.022;2023-04-10T08:28:47;13.50;1.00
5779;DHT22;2916;49.798;10.022;2023-04-10T08:31:15;13.80;1.00
5779;DHT22;2916;49.798;10.022;2023-04-10T08:33:45;13.70;1.00
5779;DHT22;2916;49.798;10.022;2023-04-10T08:36:12;13.90;1.00
5779;DHT22;2916;49.798;10.022;2023-04-10T08:38:41;13.90;1.00
5779;DHT22;2916;49.798;10.022;2023-04-10T08:41:09;13.60;1.00
5779;DHT22;2916;49.798;10.022;2023-04-10T08:43:37;13.80;1.00
5779;DHT22;2916;49.798;10.022;2023-04-10T08:46:05;13.80;1.00
5779;DHT22;2916;49.798;10.022;2023-04-10T08:48:37;13.90;1.00
5779;DHT22;2916;49.798;10.022;2023-04-10T08:51:09;14.00;1.00
5779;DHT22;2916;49.798;10.022;2023-04-10T08:53:43;13.90;1.00
5779;DHT22;2916;49.798;10.022;2023-04-10T08:56:12;14.10;1.00
5779;DHT22;2916;49.798;10.022;2023-04-10T08:58:40;13.90;1.00
5779;DHT22;2916;49.798;10.022;2023-04-10T09:01:08;14.10;1.00
5779;DHT22;2916;49.798;10.022;2023-04-10T09:03:37;14.50;1.00
5779;DHT22;2916;49.798;10.022;2023-04-10T09:06:05;14.30;1.00
5779;DHT22;2916;49.798;10.022;2023-04-10T09:08:34;13.90;1.00
5779;DHT22;2916;49.798;10.022;2023-04-10T09:11:03;14.10;1.00
5779;DHT22;2916;49.798;10.022;2023-04-10T09:13:36;14.50;1.00
5779;DHT22;2916;49.798;10.022;2023-04-10T09:16:05;14.80;1.00
5779;DHT22;2916;49.798;10.022;2023-04-10T09:18:42;14.80;1.00
5779;DHT22;2916;49.798;10.022;2023-04-10T09:21:16;14.80;1.00
5779;DHT22;2916;49.798;10.022;2023-04-10T09:23:47;15.00;1.00
5779;DHT22;2916;49.798;10.022;2023-04-10T09:26:22;15.00;1.00
5779;DHT22;2916;49.798;10.022;2023-04-10T09:28:58;14.90;1.00
5779;DHT22;2916;49.798;10.022;2023-04-10T09:31:29;15.00;1.00
5779;DHT22;2916;49.798;10.022;2023-04-10T09:34:07;15.20;1.00
5779;DHT22;2916;49.798;10.022;2023-04-10T09:36:38;15.10;1.00
5779;DHT22;2916;49.798;10.022;2023-04-10T09:39:08;15.30;1.00
5779;DHT22;2916;49.798;10.022;2023-04-10T09:41:47;14.80;1.00
5779;DHT22;2916;49.798;10.022;2023-04-10T09:44:18;15.40;1.00
5779;DHT22;2916;49.798;10.022;2023-04-10T09:46:55;15.20;1.00
5779;DHT22;2916;49.798;10.022;2023-04-10T09:49:22;15.30;1.00
5779;DHT22;2916;49.798;10.022;2023-04-10T09:51:51;15.10;1.00
5779;DHT22;2916;49.798;10.022;2023-04-10T09:54:18;15.10;1.00
5779;DHT22;2916;49.798;10.022;2023-04-10T09:57:02;15.60;1.00
5779;DHT22;2916;49.798;10.022;2023-04-10T09:59:34;15.40;1.00
5779;DHT22;2916;49.798;10.022;2023-04-10T10:02:04;15.70;1.00
5779;DHT22;2916;49.798;10.022;2023-04-10T10:04:33;15.90;1.00
5779;DHT22;2916;49.798;10.022;2023-04-10T10:07:03;15.60;1.00
5779;DHT22;2916;49.798;10.022;2023-04-10T10:09:30;15.70;1.00
5779;DHT22;2916;49.798;10.022;2023-04-10T10:11:58;15.90;1.00
5779;DHT22;2916;49.798;10.022;2023-04-10T10:14:27;15.80;1.00
5779;DHT22;2916;49.798;10.022;2023-04-10T10:16:55;16.20;1.00
5779;DHT22;2916;49.798;10.022;2023-04-10T10:19:32;15.90;1.00
5779;DHT22;2916;49.798;10.022;2023-04-10T10:22:09;16.00;1.00
5779;DHT22;2916;49.798;10.022;2023-04-10T10:24:37;15.70;1.00
5779;DHT22;2916;49.798;10.022;2023-04-10T10:27:13;15.70;1.00
5779;DHT22;2916;49.798;10.022;2023-04-10T10:29:43;15.80;1.00
5779;DHT22;2916;49.798;10.022;2023-04-10T10:32:13;15.60;1.00
5779;DHT22;2916;49.798;10.022;2023-04-10T10:34:46;15.90;1.00
5779;DHT22;2916;49.798;10.022;2023-04-10T10:37:18;15.90;1.00
5779;DHT22;2916;49.798;10.022;2023-04-10T10:39:52;16.20;1.00
5779;DHT22;2916;49.798;10.022;2023-04-10T10:42:30;15.80;1.00
5779;DHT22;2916;49.798;10.022;2023-04-10T10:45:07;16.10;1.00
5779;DHT22;2916;49.798;10.022;2023-04-10T10:47:44;16.10;1.00
5779;DHT22;2916;49.798;10.022;2023-04-10T10:50:15;15.80;1.00
5779;DHT22;2916;49.798;10.022;2023-04-10T10:52:45;16.10;1.00
5779;DHT22;2916;49.798;10.022;2023-04-10T10:55:32;16.20;1.00
5779;DHT22;2916;49.798;10.022;2023-04-10T10:58:04;16.00;1.00
5779;DHT22;2916;49.798;10.022;2023-04-10T11:01:03;15.90;1.00
5779;DHT22;2916;49.798;10.022;2023-04-10T11:03:33;15.90;1.00
5779;DHT22;2916;49.798;10.022;2023-04-10T11:06:01;16.40;1.00
5779;DHT22;2916;49.798;10.022;2023-04-10T11:08:41;16.80;1.00
5779;DHT22;2916;49.798;10.022;2023-04-10T11:11:16;16.70;1.00
5779;DHT22;2916;49.798;10.022;2023-04-10T11:14:12;17.20;1.00
5779;DHT22;2916;49.798;10.022;2023-04-10T11:16:46;16.90;1.00
5779;DHT22;2916;49.798;10.022;2023-04-10T11:19:14;16.80;1.00
5779;DHT22;2916;49.798;10.022;2023-04-10T11:22:04;16.70;1.00
5779;DHT22;2916;49.798;10.022;2023-04-10T11:24:58;16.40;1.00
5779;DHT22;2916;49.798;10.022;2023-04-10T11:27:43;16.60;1.00
5779;DHT22;2916;49.798;10.022;2023-04-10T11:30:33;16.90;1.00
5779;DHT22;2916;49.798;10.022;2023-04-10T11:33:03;16.50;1.00
5779;DHT22;2916;49.798;10.022;2023-04-10T11:35:31;16.30;1.00
5779;DHT22;2916;49.798;10.022;2023-04-10T11:38:13;16.10;1.00
5779;DHT22;2916;49.798;10.022;2023-04-10T11:40:58;16.30;1.00
5779;DHT22;2916;49.798;10.022;2023-04-10T11:43:30;16.70;1.00
5779;DHT22;2916;49.798;10.022;2023-04-10T11:46:02;16.70;1.00
5779;DHT22;2916;49.798;10.022;2023-04-10T11:48:31;16.90;1.00
5779;DHT22;2916;49.798;10.022;2023-04-10T11:50:58;16.60;1.00
5779;DHT22;2916;49.798;10.022;2023-04-10T11:53:33;16.40;1.00
5779;DHT22;2916;49.798;10.022;2023-04-10T11:56:02;16.70;1.00
5779;DHT22;2916;49.798;10.022;2023-04-10T11:58:29;17.10;1.00
5779;DHT22;2916;49.798;10.022;2023-04-10T12:00:59;17.10;1.00
5779;DHT22;2916;49.798;10.022;2023-04-10T12:03:37;17.10;1.00
5779;DHT22;2916;49.798;10.022;2023-04-10T12:06:08;17.10;1.00
5779;DHT22;2916;49.798;10.022;2023-04-10T12:08:38;17.00;1.00
5779;DHT22;2916;49.798;10.022;2023-04-10T12:11:09;16.90;1.00
5779;DHT22;2916;49.798;10.022;2023-04-10T12:13:37;17.10;1.00
5779;DHT22;2916;49.798;10.022;2023-04-10T12:16:07;17.40;1.00
5779;DHT22;2916;49.798;10.022;2023-04-10T12:18:36;17.30;1.00
5779;DHT22;2916;49.798;10.022;2023-04-10T12:21:04;17.50;1.00
5779;DHT22;2916;49.798;10.022;2023-04-10T12:23:34;17.50;1.00
5779;DHT22;2916;49.798;10.022;2023-04-10T12:26:09;17.20;1.00
5779;DHT22;2916;49.798;10.022;2023-04-10T12:28:39;17.20;1.00
5779;DHT22;2916;49.798;10.022;2023-04-10T12:31:08;17.10;1.00
5779;DHT22;2916;49.798;10.022;2023-04-10T12:33:35;17.40;1.00
5779;DHT22;2916;49.798;10.022;2023-04-10T12:36:03;17.50;1.00
5779;DHT22;2916;49.798;10.022;2023-04-10T12:38:41;17.40;1.00
5779;DHT22;2916;49.798;10.022;2023-04-10T12:41:11;17.10;1.00
5779;DHT22;2916;49.798;10.022;2023-04-10T12:43:40;17.30;1.00
5779;DHT22;2916;49.798;10.022;2023-04-10T12:46:20;17.10;1.00
5779;DHT22;2916;49.798;10.022;2023-04-10T12:48:49;17.20;1.00
5779;DHT22;2916;49.798;10.022;2023-04-10T12:51:16;17.30;1.00
5779;DHT22;2916;49.798;10.022;2023-04-10T12:53:44;17.50;1.00
5779;DHT22;2916;49.798;10.022;2023-04-10T12:56:13;17.20;1.00
5779;DHT22;2916;49.798;10.022;2023-04-10T12:58:42;17.30;1.00
5779;DHT22;2916;49.798;10.022;2023-04-10T13:01:10;17.70;1.00
5779;DHT22;2916;49.798;10.022;2023-04-10T13:03:39;17.60;1.00
5779;DHT22;2916;49.798;10.022;2023-04-10T13:06:06;17.20;1.00
5779;DHT22;2916;49.798;10.022;2023-04-10T13:08:35;17.50;1.00
5779;DHT22;2916;49.798;10.022;2023-04-10T13:11:02;17.80;1.00
5779;DHT22;2916;49.798;10.022;2023-04-10T13:13:31;18.00;1.00
5779;DHT22;2916;49.798;10.022;2023-04-10T13:15:58;18.20;1.00
5779;DHT22;2916;49.798;10.022;2023-04-10T13:18:25;18.20;1.00
5779;DHT22;2916;49.798;10.022;2023-04-10T13:20:53;18.10;1.00
5779;DHT22;2916;49.798;10.022;2023-04-10T13:23:20;18.00;1.00
5779;DHT22;2916;49.798;10.022;2023-04-10T13:25:47;17.90;1.00
5779;DHT22;2916;49.798;10.022;2023-04-10T13:28:14;17.50;1.00
5779;DHT22;2916;49.798;10.022;2023-04-10T13:30:44;17.30;1.00
5779;DHT22;2916;49.798;10.022;2023-04-10T13:33:11;17.20;1.00
5779;DHT22;2916;49.798;10.022;2023-04-10T13:35:39;17.20;1.00
5779;DHT22;2916;49.798;10.022;2023-04-10T13:38:06;17.10;1.00
5779;DHT22;2916;49.798;10.022;2023-04-10T13:40:36;17.50;1.00
5779;DHT22;2916;49.798;10.022;2023-04-10T13:43:03;17.60;1.00
5779;DHT22;2916;49.798;10.022;2023-04-10T13:45:31;17.50;1.00
5779;DHT22;2916;49.798;10.022;2023-04-10T13:48:00;17.50;1.00
5779;DHT22;2916;49.798;10.022;2023-04-10T13:50:28;17.30;1.00
5779;DHT22;2916;49.798;10.022;2023-04-10T13:52:55;17.40;1.00
5779;DHT22;2916;49.798;10.022;2023-04-10T13:55:22;17.30;1.00
5779;DHT22;2916;49.798;10.022;2023-04-10T13:57:50;17.40;1.00
5779;DHT22;2916;49.798;10.022;2023-04-10T14:00:18;17.40;1.00
5779;DHT22;2916;49.798;10.022;2023-04-10T14:02:45;17.50;1.00
5779;DHT22;2916;49.798;10.022;2023-04-10T14:05:14;17.40;1.00
5779;DHT22;2916;49.798;10.022;2023-04-10T14:07:41;17.40;1.00
5779;DHT22;2916;49.798;10.022;2023-04-10T14:10:09;17.60;1.00
5779;DHT22;2916;49.798;10.022;2023-04-10T14:12:36;17.70;1.00
5779;DHT22;2916;49.798;10.022;2023-04-10T14:15:04;17.60;1.00
5779;DHT22;2916;49.798;10.022;2023-04-10T14:17:32;17.50;1.00
5779;DHT22;2916;49.798;10.022;2023-04-10T14:20:00;17.50;1.00
5779;DHT22;2916;49.798;10.022;2023-04-10T14:22:28;17.40;1.00
5779;DHT22;2916;49.798;10.022;2023-04-10T14:24:56;17.30;1.00
5779;DHT22;2916;49.798;10.022;2023-04-10T14:27:23;17.40;1.00
5779;DHT22;2916;49.798;10.022;2023-04-10T14:29:50;17.60;1.00
5779;DHT22;2916;49.798;10.022;2023-04-10T14:32:17;17.60;1.00
5779;DHT22;2916;49.798;10.022;2023-04-10T14:34:45;17.50;1.00
5779;DHT22;2916;49.798;10.022;2023-04-10T14:37:12;17.50;1.00
5779;DHT22;2916;49.798;10.022;2023-04-10T14:39:40;17.60;1.00
5779;DHT22;2916;49.798;10.022;2023-04-10T14:42:07;17.60;1.00
5779;DHT22;2916;49.798;10.022;2023-04-10T14:44:35;17.60;1.00
5779;DHT22;2916;49.798;10.022;2023-04-10T14:47:02;17.50;1.00
5779;DHT22;2916;49.798;10.022;2023-04-10T14:49:31;17.60;1.00
5779;DHT22;2916;49.798;10.022;2023-04-10T14:51:58;17.50;1.00
5779;DHT22;2916;49.798;10.022;2023-04-10T14:54:25;17.60;1.00
5779;DHT22;2916;49.798;10.022;2023-04-10T14:56:54;17.60;1.00
5779;DHT22;2916;49.798;10.022;2023-04-10T14:59:21;17.50;1.00
5779;DHT22;2916;49.798;10.022;2023-04-10T15:01:49;17.60;1.00
5779;DHT22;2916;49.798;10.022;2023-04-10T15:04:18;17.60;1.00
5779;DHT22;2916;49.798;10.022;2023-04-10T15:06:45;17.30;1.00
5779;DHT22;2916;49.798;10.022;2023-04-10T15:09:12;17.40;1.00
5779;DHT22;2916;49.798;10.022;2023-04-10T15:11:39;17.20;1.00
5779;DHT22;2916;49.798;10.022;2023-04-10T15:14:08;17.20;1.00
5779;DHT22;2916;49.798;10.022;2023-04-10T15:16:36;17.30;1.00
5779;DHT22;2916;49.798;10.022;2023-04-10T15:19:03;17.20;1.00
5779;DHT22;2916;49.798;10.022;2023-04-10T15:21:30;17.20;1.00
5779;DHT22;2916;49.798;10.022;2023-04-10T15:23:58;17.10;1.00
5779;DHT22;2916;49.798;10.022;2023-04-10T15:26:25;17.00;1.00
5779;DHT22;2916;49.798;10.022;2023-04-10T15:28:52;17.00;1.00
5779;DHT22;2916;49.798;10.022;2023-04-10T15:31:22;17.00;1.00
5779;DHT22;2916;49.798;10.022;2023-04-10T15:33:50;17.00;1.00
5779;DHT22;2916;49.798;10.022;2023-04-10T15:36:17;16.90;1.00
5779;DHT22;2916;49.798;10.022;2023-04-10T15:38:44;16.80;1.00
5779;DHT22;2916;49.798;10.022;2023-04-10T15:41:12;16.70;1.00
5779;DHT22;2916;49.798;10.022;2023-04-10T15:43:39;16.80;1.00
5779;DHT22;2916;49.798;10.022;2023-04-10T15:46:07;16.80;1.00
5779;DHT22;2916;49.798;10.022;2023-04-10T15:48:36;16.70;1.00
5779;DHT22;2916;49.798;10.022;2023-04-10T15:51:03;16.60;1.00
5779;DHT22;2916;49.798;10.022;2023-04-10T15:53:31;16.60;1.00
5779;DHT22;2916;49.798;10.022;2023-04-10T15:55:59;16.70;1.00
5779;DHT22;2916;49.798;10.022;2023-04-10T15:58:29;16.50;1.00
5779;DHT22;2916;49.798;10.022;2023-04-10T16:00:57;16.50;1.00
5779;DHT22;2916;49.798;10.022;2023-04-10T16:03:24;16.40;1.00
5779;DHT22;2916;49.798;10.022;2023-04-10T16:05:52;16.40;1.00
5779;DHT22;2916;49.798;10.022;2023-04-10T16:08:20;16.50;1.00
5779;DHT22;2916;49.798;10.022;2023-04-10T16:10:49;16.50;1.00
5779;DHT22;2916;49.798;10.022;2023-04-10T16:13:16;16.50;1.00
5779;DHT22;2916;49.798;10.022;2023-04-10T16:15:43;16.30;1.00
5779;DHT22;2916;49.798;10.022;2023-04-10T16:18:11;16.20;1.00
5779;DHT22;2916;49.798;10.022;2023-04-10T16:20:39;16.30;1.00